Impacts METAR Board INFO
IDs:

KBWI - Baltimore-Washington, MD, US

Updated at: 0806 UTC 17 Dec 2017
Potential Impact None Slight Moderate High
Time16/20Z 16/21Z 16/22Z 16/23Z 17/00Z 17/01Z 17/02Z 17/03Z 17/04Z 17/05Z 17/06Z 17/07Z 17/08Z
VIS10 10 10 10 10 10 10 10 10 10 10 10 10
CIG-- -- -- -- -- -- -- -- -- -- -- -- --
CoverSCTFEWFEWCLRCLRCLRCLRCLRCLRCLRCLRFEWFEW
FltCatVFRVFRVFRVFRVFRVFRVFRVFRVFRVFRVFRVFRVFR
WX--------------------------
WDir230230200022002600002500290
WSpd9 8 4 0 3 0 3 0 0 0 4 0 3
WGst-- -- -- -- -- -- -- -- -- -- -- -- --
Raw hourly METARs
KBWI 161954Z 23009KT 10SM FEW060 SCT100 07/M05 A3006 RMK AO2 SLP182 T00721050 $
KBWI 162054Z 23008KT 10SM FEW100 07/M05 A3006 RMK AO2 SLP180 T00721050 56007 $
KBWI 162154Z 20004KT 10SM FEW100 06/M05 A3008 RMK AO2 SLP188 T00561050 $
KBWI 162254Z 00000KT 10SM CLR 04/M05 A3012 RMK AO2 SLP199 T00441050 $
KBWI 162354Z 22003KT 10SM CLR 03/M05 A3014 RMK AO2 SLP208 T00331050 10078 20033 53028 $
KBWI 170054Z 00000KT 10SM CLR 01/M05 A3015 RMK AO2 SLP211 T00111050 $
KBWI 170154Z 26003KT 10SM CLR M01/M04 A3016 RMK AO2 SLP215 T10111044 $
KBWI 170254Z 00000KT 10SM CLR M01/M04 A3017 RMK AO2 SLP218 T10111044 53010 $
KBWI 170354Z 00000KT 10SM CLR M01/M04 A3019 RMK AO2 SLP224 T10111044
KBWI 170454Z 00000KT 10SM CLR M02/M04 A3020 RMK AO2 SLP228 T10221044 400781078
KBWI 170554Z 25004KT 10SM CLR M03/M04 A3020 RMK AO2 SLP228 T10281044 10033 21028 51009
KBWI 170654Z 00000KT 10SM FEW250 M03/M04 A3022 RMK AO2 SLP233 T10281044
KBWI 170754Z 29003KT 10SM FEW250 M02/M04 A3022 RMK AO2 SLP236 T10221039